Time;durP1;ratioP1;P1;durP2;ratioP2;P2;SDS_P1;SDS_P2;PMS_P1;PMS_P2;Temp;Humidity;BMP_temperature;BMP_pressure;BME280_temperature;BME280_humidity;BME280_pressure;Samples;Min_cycle;Max_cycle;Signal;HPM_P1;HPM_P2
2022/07/19 00:01:41;;;;;;;8.15;3.97;;;24.20;53.10;;;;;;5016312;28;20037;-62
2022/07/19 00:04:07;;;;;;;6.43;3.40;;;24.20;53.20;;;;;;5017297;28;20049;-63
2022/07/19 00:06:33;;;;;;;6.70;3.28;;;24.10;53.30;;;;;;5016481;28;20443;-63
2022/07/19 00:09:00;;;;;;;8.18;3.83;;;24.10;53.30;;;;;;5015434;28;20053;-64
2022/07/19 00:11:26;;;;;;;6.45;3.78;;;24.10;53.40;;;;;;5013017;28;20359;-64
2022/07/19 00:13:52;;;;;;;7.32;3.58;;;24.00;53.30;;;;;;5015878;28;20042;-63
2022/07/19 00:16:18;;;;;;;8.05;3.50;;;24.00;53.30;;;;;;5016093;28;20037;-64
2022/07/19 00:18:44;;;;;;;6.35;3.85;;;24.00;53.40;;;;;;5016992;28;20061;-64
2022/07/19 00:21:09;;;;;;;7.32;3.42;;;23.90;53.50;;;;;;5015833;28;20061;-64
2022/07/19 00:23:35;;;;;;;7.57;3.42;;;23.90;53.50;;;;;;5016202;28;20084;-63
2022/07/19 00:26:04;;;;;;;6.53;3.30;;;23.90;53.50;;;;;;5015307;28;20098;-64
2022/07/19 00:28:30;;;;;;;6.85;3.22;;;23.90;53.70;;;;;;5016092;28;20436;-64
2022/07/19 00:30:56;;;;;;;6.60;3.13;;;23.90;53.60;;;;;;5014846;28;20101;-64
2022/07/19 00:33:22;;;;;;;7.63;3.63;;;23.90;53.60;;;;;;5015922;28;20022;-63
2022/07/19 00:35:47;;;;;;;7.97;4.07;;;23.90;53.70;;;;;;5015307;28;20109;-64
2022/07/19 00:38:14;;;;;;;6.10;3.65;;;23.90;53.70;;;;;;5015761;28;20446;-64
2022/07/19 00:40:41;;;;;;;7.45;3.75;;;23.90;53.80;;;;;;5015353;28;20117;-64
2022/07/19 00:43:07;;;;;;;7.78;3.90;;;23.80;53.80;;;;;;5015810;28;20426;-64
2022/07/19 00:45:33;;;;;;;6.95;3.25;;;23.80;53.80;;;;;;5016236;28;20026;-64
2022/07/19 00:47:59;;;;;;;8.18;3.65;;;23.80;53.80;;;;;;5015543;28;20084;-64
2022/07/19 00:50:25;;;;;;;7.45;3.75;;;23.80;53.90;;;;;;5015186;28;20026;-64
2022/07/19 00:52:54;;;;;;;7.32;3.55;;;23.80;53.90;;;;;;5014703;28;20048;-64
2022/07/19 00:55:21;;;;;;;7.35;3.58;;;23.70;54.00;;;;;;5012734;28;20061;-63
2022/07/19 00:57:47;;;;;;;7.55;3.63;;;23.70;54.00;;;;;;5013699;28;20041;-63
2022/07/19 01:00:15;;;;;;;7.85;3.90;;;23.70;54.10;;;;;;5013826;28;20018;-64
2022/07/19 01:02:42;;;;;;;6.93;3.50;;;23.70;54.10;;;;;;5015167;28;20127;-64
2022/07/19 01:05:10;;;;;;;6.65;3.17;;;23.60;54.10;;;;;;5015124;28;20057;-63
2022/07/19 01:07:38;;;;;;;6.80;3.42;;;23.60;54.20;;;;;;5015085;28;20025;-64
2022/07/19 01:10:05;;;;;;;6.95;3.17;;;23.60;54.30;;;;;;5013423;28;20029;-63
2022/07/19 01:12:33;;;;;;;8.85;3.67;;;23.60;54.40;;;;;;5015580;28;20042;-63
2022/07/19 01:15:00;;;;;;;8.23;3.13;;;23.50;54.30;;;;;;5015631;28;20444;-64
2022/07/19 01:17:26;;;;;;;7.20;3.33;;;23.60;54.40;;;;;;5014568;28;20095;-63
2022/07/19 01:19:52;;;;;;;7.45;3.85;;;23.50;54.50;;;;;;5014486;28;20025;-64
2022/07/19 01:22:18;;;;;;;7.38;3.58;;;23.50;54.60;;;;;;5014507;28;20068;-63
2022/07/19 01:24:44;;;;;;;7.30;3.40;;;23.50;54.70;;;;;;5015449;28;20058;-63
2022/07/19 01:27:10;;;;;;;6.07;3.10;;;23.50;54.80;;;;;;5015533;28;20420;-64
2022/07/19 01:29:36;;;;;;;8.63;3.08;;;23.50;54.80;;;;;;5014238;28;20025;-64
2022/07/19 01:32:03;;;;;;;7.40;3.40;;;23.40;54.80;;;;;;5014379;28;20112;-63
2022/07/19 01:34:29;;;;;;;7.57;3.10;;;23.40;54.80;;;;;;5014529;28;20430;-63
2022/07/19 01:36:55;;;;;;;6.10;3.05;;;23.40;54.80;;;;;;5014663;28;20192;-64
2022/07/19 01:39:20;;;;;;;6.53;3.20;;;23.40;55.00;;;;;;5027718;28;20101;-64
2022/07/19 01:41:46;;;;;;;7.18;3.53;;;23.40;55.00;;;;;;5014496;28;20034;-64
2022/07/19 01:44:12;;;;;;;7.38;3.22;;;23.40;55.10;;;;;;5013578;28;20017;-63
2022/07/19 01:46:38;;;;;;;7.93;3.50;;;23.30;55.10;;;;;;5013821;28;20406;-63
2022/07/19 01:49:03;;;;;;;7.03;3.45;;;23.30;55.20;;;;;;5013617;28;20053;-61
2022/07/19 01:51:29;;;;;;;6.53;3.28;;;23.30;55.30;;;;;;5014003;28;20026;-61
2022/07/19 01:53:55;;;;;;;7.57;3.72;;;23.30;55.40;;;;;;5013324;28;20391;-61
2022/07/19 01:56:20;;;;;;;6.88;3.22;;;23.30;55.50;;;;;;5014994;28;20029;-62
2022/07/19 01:58:46;;;;;;;6.57;3.22;;;23.20;55.60;;;;;;5013767;28;20117;-62
2022/07/19 02:01:12;;;;;;;7.22;3.67;;;23.20;55.70;;;;;;5012979;28;20030;-62
2022/07/19 02:03:38;;;;;;;6.20;3.20;;;23.20;55.80;;;;;;5014387;28;20447;-62
2022/07/19 02:06:04;;;;;;;8.40;3.70;;;23.10;55.90;;;;;;5014756;28;20041;-63
2022/07/19 02:08:29;;;;;;;8.23;3.38;;;23.10;56.00;;;;;;5013566;28;20355;-62
2022/07/19 02:10:55;;;;;;;7.53;4.00;;;23.10;56.10;;;;;;5013933;28;20026;-62
2022/07/19 02:13:20;;;;;;;6.22;3.28;;;23.10;56.20;;;;;;5014877;28;20156;-62
2022/07/19 02:15:46;;;;;;;7.30;3.70;;;23.10;56.30;;;;;;5014292;28;20414;-62
2022/07/19 02:18:12;;;;;;;7.55;3.35;;;23.10;56.40;;;;;;5013971;28;20109;-62
2022/07/19 02:20:38;;;;;;;6.00;3.17;;;23.00;56.50;;;;;;5013522;28;20068;-62
2022/07/19 02:23:04;;;;;;;7.50;3.53;;;23.00;56.70;;;;;;5013452;28;20073;-63
2022/07/19 02:25:29;;;;;;;7.78;4.05;;;23.00;56.70;;;;;;5014625;28;20080;-63
2022/07/19 02:27:55;;;;;;;7.25;3.22;;;23.00;56.70;;;;;;5030095;28;20044;-63
2022/07/19 02:30:21;;;;;;;7.68;3.83;;;23.00;56.80;;;;;;5013458;28;20018;-62
2022/07/19 02:32:46;;;;;;;7.72;3.75;;;23.00;56.90;;;;;;5014138;28;20558;-62
2022/07/19 02:35:12;;;;;;;6.35;3.25;;;22.90;57.00;;;;;;5029112;28;20333;-63
2022/07/19 02:37:40;;;;;;;7.38;3.55;;;22.90;57.10;;;;;;5014781;28;20022;-62
2022/07/19 02:40:06;;;;;;;6.10;3.20;;;22.90;57.20;;;;;;5015710;28;20047;-63
2022/07/19 02:42:32;;;;;;;6.25;3.17;;;22.90;57.20;;;;;;5014442;28;20034;-62
2022/07/19 02:44:58;;;;;;;7.05;3.75;;;22.90;57.30;;;;;;5014364;28;20079;-62
2022/07/19 02:47:24;;;;;;;7.43;3.65;;;22.80;57.30;;;;;;5014890;28;20034;-62
2022/07/19 02:49:49;;;;;;;7.25;3.45;;;22.80;57.50;;;;;;5014793;28;20418;-62
2022/07/19 02:52:15;;;;;;;8.18;3.92;;;22.80;57.50;;;;;;5013558;28;20116;-62
2022/07/19 02:54:41;;;;;;;8.15;3.78;;;22.80;57.50;;;;;;5014105;28;20057;-62
2022/07/19 02:57:07;;;;;;;6.88;3.50;;;22.80;57.50;;;;;;5014004;28;20065;-63
2022/07/19 02:59:32;;;;;;;7.07;3.50;;;22.80;57.50;;;;;;5016162;28;20041;-62
2022/07/19 03:01:58;;;;;;;6.45;3.40;;;22.70;57.60;;;;;;5012576;28;20439;-62
2022/07/19 03:04:23;;;;;;;6.20;3.40;;;22.70;57.70;;;;;;5012218;28;20375;-63
2022/07/19 03:06:49;;;;;;;6.15;3.13;;;22.70;57.70;;;;;;5012166;28;20021;-63
2022/07/19 03:09:15;;;;;;;6.13;3.30;;;22.70;57.80;;;;;;5017543;28;20113;-63
2022/07/19 03:11:40;;;;;;;6.75;3.42;;;22.70;57.70;;;;;;5018345;28;20022;-64
2022/07/19 03:14:06;;;;;;;6.50;3.20;;;22.70;57.80;;;;;;5010974;28;20042;-63
2022/07/19 03:16:32;;;;;;;7.15;3.25;;;22.60;57.80;;;;;;5013097;28;20030;-63
2022/07/19 03:18:58;;;;;;;5.90;3.10;;;22.60;57.80;;;;;;5014264;28;20137;-63
2022/07/19 03:21:23;;;;;;;6.75;3.45;;;22.60;57.80;;;;;;5013507;28;20462;-63
2022/07/19 03:23:49;;;;;;;9.38;3.53;;;22.60;57.90;;;;;;5010899;28;20460;-64
2022/07/19 03:26:16;;;;;;;8.93;3.50;;;22.60;57.90;;;;;;5012558;28;20057;-63
2022/07/19 03:28:41;;;;;;;8.15;3.85;;;22.50;57.90;;;;;;5018647;28;20538;-63
2022/07/19 03:31:07;;;;;;;7.47;3.58;;;22.50;57.90;;;;;;4998429;28;20033;-64
2022/07/19 03:33:33;;;;;;;6.75;3.35;;;22.50;58.00;;;;;;5010501;28;20026;-64
2022/07/19 03:35:58;;;;;;;7.72;3.17;;;22.50;58.00;;;;;;5015747;28;20363;-63
2022/07/19 03:38:24;;;;;;;7.60;3.53;;;22.50;58.00;;;;;;5013941;28;20042;-63
2022/07/19 03:40:50;;;;;;;7.63;3.72;;;22.40;57.90;;;;;;5016017;28;20092;-63
2022/07/19 03:43:17;;;;;;;7.10;3.13;;;22.40;58.00;;;;;;5016812;28;20305;-64
2022/07/19 03:45:44;;;;;;;7.05;3.20;;;22.40;57.90;;;;;;5020084;28;20033;-63
2022/07/19 03:48:09;;;;;;;6.43;3.30;;;22.40;57.90;;;;;;5014744;28;20096;-63
2022/07/19 03:50:35;;;;;;;5.63;3.03;;;22.40;58.00;;;;;;5015432;28;20402;-63
2022/07/19 03:53:01;;;;;;;5.97;3.17;;;22.30;58.00;;;;;;5016291;28;20129;-63
2022/07/19 03:55:27;;;;;;;7.10;3.33;;;22.40;58.00;;;;;;5016982;28;20030;-62
2022/07/19 03:57:52;;;;;;;7.32;3.30;;;22.40;58.00;;;;;;5015082;28;20471;-62
2022/07/19 04:00:18;;;;;;;6.53;3.22;;;22.40;58.00;;;;;;5014503;28;20056;-61
2022/07/19 04:02:43;;;;;;;6.82;3.25;;;22.30;58.00;;;;;;5015504;28;20459;-62
2022/07/19 04:05:09;;;;;;;6.53;3.00;;;22.40;58.00;;;;;;5015802;28;20037;-62
2022/07/19 04:07:35;;;;;;;8.30;3.33;;;22.40;58.00;;;;;;5016726;28;20041;-63
2022/07/19 04:10:01;;;;;;;6.07;3.30;;;22.40;58.10;;;;;;5020576;28;20096;-62
2022/07/19 04:12:26;;;;;;;8.20;2.90;;;22.40;58.20;;;;;;5010836;28;20075;-62
2022/07/19 04:14:52;;;;;;;7.85;3.20;;;22.40;58.20;;;;;;5015092;28;20041;-63
2022/07/19 04:17:18;;;;;;;6.43;2.90;;;22.40;58.20;;;;;;5016351;28;20411;-62
2022/07/19 04:19:43;;;;;;;7.28;3.58;;;22.40;58.30;;;;;;5033397;28;20049;-61
2022/07/19 04:22:09;;;;;;;8.90;3.42;;;22.40;58.40;;;;;;5015391;28;20033;-61
2022/07/19 04:24:34;;;;;;;7.03;3.53;;;22.40;58.40;;;;;;5015523;28;20037;-61
2022/07/19 04:27:00;;;;;;;7.50;3.50;;;22.40;58.40;;;;;;5016774;28;20030;-61
2022/07/19 04:29:26;;;;;;;6.60;3.05;;;22.40;58.30;;;;;;5016164;28;20410;-61
2022/07/19 04:31:51;;;;;;;7.63;3.65;;;22.40;58.20;;;;;;5013922;28;20436;-61
2022/07/19 04:34:17;;;;;;;6.63;3.45;;;22.40;58.20;;;;;;5016703;28;20091;-61
2022/07/19 04:36:43;;;;;;;8.05;3.40;;;22.40;58.20;;;;;;5016645;28;20030;-62
2022/07/19 04:39:08;;;;;;;6.97;3.53;;;22.40;58.10;;;;;;5015610;28;20030;-62
2022/07/19 04:41:34;;;;;;;8.27;3.35;;;22.40;58.10;;;;;;5018147;28;20034;-62
2022/07/19 04:44:00;;;;;;;7.53;3.92;;;22.50;58.30;;;;;;5014169;28;20038;-61
2022/07/19 04:46:25;;;;;;;6.55;3.90;;;22.50;58.40;;;;;;5015894;28;20025;-62
2022/07/19 04:48:51;;;;;;;6.47;3.15;;;22.50;58.40;;;;;;5014199;28;20030;-61
2022/07/19 04:51:17;;;;;;;6.43;3.25;;;22.50;58.50;;;;;;5016679;28;20030;-61
2022/07/19 04:53:42;;;;;;;7.43;3.55;;;22.50;58.60;;;;;;5014326;28;20018;-61
2022/07/19 04:56:08;;;;;;;6.65;3.15;;;22.50;58.70;;;;;;5012777;28;20033;-61
2022/07/19 04:58:34;;;;;;;6.50;3.30;;;22.50;58.70;;;;;;5014615;28;20097;-61
2022/07/19 05:01:00;;;;;;;7.88;3.58;;;22.60;58.70;;;;;;5030370;28;20426;-61
2022/07/19 05:03:25;;;;;;;7.80;3.70;;;22.60;59.30;;;;;;5013450;28;20088;-61
2022/07/19 05:05:51;;;;;;;7.97;3.38;;;22.70;58.70;;;;;;5014302;28;20029;-62
2022/07/19 05:08:17;;;;;;;6.75;3.25;;;22.70;58.40;;;;;;5013006;28;20037;-61
2022/07/19 05:10:43;;;;;;;6.93;3.90;;;22.80;58.40;;;;;;5014546;28;20026;-62
2022/07/19 05:13:09;;;;;;;8.23;3.13;;;22.90;58.20;;;;;;5013903;28;20033;-60
2022/07/19 05:15:35;;;;;;;6.38;2.95;;;22.90;58.10;;;;;;5013361;28;20033;-61
2022/07/19 05:18:00;;;;;;;7.70;3.35;;;23.00;58.00;;;;;;5012870;28;20328;-61
2022/07/19 05:20:26;;;;;;;7.13;3.40;;;23.00;58.10;;;;;;5014637;28;20033;-61
2022/07/19 05:22:52;;;;;;;11.25;6.13;;;23.10;58.30;;;;;;5013794;28;20423;-62
2022/07/19 05:25:17;;;;;;;9.75;5.50;;;23.20;57.70;;;;;;5013457;28;20451;-61
2022/07/19 05:27:43;;;;;;;11.20;6.47;;;23.30;57.60;;;;;;5013500;28;20038;-61
2022/07/19 05:30:09;;;;;;;9.80;5.82;;;23.40;57.40;;;;;;5007931;28;20029;-61
2022/07/19 05:32:35;;;;;;;8.52;4.80;;;23.50;57.40;;;;;;5011362;28;20029;-62
2022/07/19 05:35:01;;;;;;;8.50;4.18;;;23.60;57.40;;;;;;5015209;28;20028;-62
2022/07/19 05:37:27;;;;;;;9.75;4.13;;;23.70;57.00;;;;;;5014081;28;20053;-62
2022/07/19 05:39:52;;;;;;;7.88;3.55;;;23.80;56.70;;;;;;5014617;28;20018;-62
2022/07/19 05:42:18;;;;;;;7.82;3.78;;;23.80;56.60;;;;;;5014389;28;20049;-62
2022/07/19 05:44:43;;;;;;;8.73;3.50;;;23.90;56.60;;;;;;5016892;28;20034;-62
2022/07/19 05:47:09;;;;;;;7.25;3.35;;;24.10;56.30;;;;;;5014455;28;20414;-62
2022/07/19 05:49:35;;;;;;;7.32;3.17;;;24.10;55.70;;;;;;5013551;28;20041;-62
2022/07/19 05:52:01;;;;;;;8.57;3.85;;;24.20;55.60;;;;;;5015429;28;20022;-66
2022/07/19 05:54:26;;;;;;;6.10;3.25;;;24.30;55.10;;;;;;5012379;28;20469;-61
2022/07/19 05:56:52;;;;;;;7.50;3.45;;;24.40;55.20;;;;;;5015164;28;20045;-60
2022/07/19 05:59:20;;;;;;;6.70;4.00;;;24.50;54.90;;;;;;5014711;28;20033;-60
2022/07/19 06:01:48;;;;;;;7.82;3.63;;;24.60;54.60;;;;;;5014214;28;20123;-60
2022/07/19 06:04:14;;;;;;;7.70;3.35;;;24.80;54.60;;;;;;5014188;28;20030;-60
2022/07/19 06:06:39;;;;;;;7.40;3.50;;;24.90;54.60;;;;;;5014259;28;20151;-61
2022/07/19 06:09:05;;;;;;;9.43;3.80;;;25.00;54.40;;;;;;5015162;28;20112;-61
2022/07/19 06:11:31;;;;;;;9.52;3.55;;;25.10;54.20;;;;;;5013472;28;20319;-60
2022/07/19 06:13:57;;;;;;;7.70;3.90;;;25.10;54.40;;;;;;5012555;28;20045;-61
2022/07/19 06:16:23;;;;;;;8.18;3.35;;;25.20;54.10;;;;;;5014920;28;20036;-60
2022/07/19 06:18:49;;;;;;;7.75;4.05;;;25.30;54.20;;;;;;5013979;28;20052;-61
2022/07/19 06:21:18;;;;;;;8.10;3.67;;;25.50;53.90;;;;;;5014850;28;20491;-62
2022/07/19 06:23:44;;;;;;;9.32;3.92;;;25.50;53.10;;;;;;5015135;28;20050;-61
2022/07/19 06:26:11;;;;;;;7.57;4.00;;;25.70;52.80;;;;;;5015417;28;20339;-61
2022/07/19 06:28:38;;;;;;;8.70;4.10;;;25.80;52.70;;;;;;5015026;28;20038;-61
2022/07/19 06:31:04;;;;;;;9.43;4.25;;;25.90;52.30;;;;;;5014600;28;20046;-61
2022/07/19 06:33:29;;;;;;;8.65;4.45;;;26.00;52.10;;;;;;5014185;28;20018;-61
2022/07/19 06:35:55;;;;;;;8.50;4.03;;;26.20;52.10;;;;;;5014875;28;20414;-61
2022/07/19 06:38:21;;;;;;;9.18;4.65;;;26.30;51.60;;;;;;5013955;28;20053;-61
2022/07/19 06:40:47;;;;;;;7.28;4.30;;;26.40;51.00;;;;;;5013055;28;20034;-61
2022/07/19 06:43:13;;;;;;;9.27;4.35;;;26.50;50.80;;;;;;5013444;28;20034;-61
2022/07/19 06:45:39;;;;;;;11.98;5.43;;;26.70;50.70;;;;;;5012357;28;20048;-61
2022/07/19 06:48:05;;;;;;;9.68;4.68;;;26.80;50.60;;;;;;5014517;28;20026;-61
2022/07/19 06:50:32;;;;;;;10.50;4.72;;;27.00;50.40;;;;;;5014156;28;20041;-61
2022/07/19 06:52:57;;;;;;;9.25;4.60;;;27.10;49.70;;;;;;5014812;28;20030;-61
2022/07/19 06:55:24;;;;;;;8.88;4.35;;;27.30;49.50;;;;;;5013465;28;20036;-61
2022/07/19 06:57:50;;;;;;;8.38;4.28;;;27.40;49.40;;;;;;5014007;28;20033;-61
2022/07/19 07:00:15;;;;;;;8.77;4.03;;;27.60;49.00;;;;;;5014120;28;20029;-62
2022/07/19 07:02:41;;;;;;;8.82;4.57;;;27.70;48.70;;;;;;5015435;28;20053;-62
2022/07/19 07:05:08;;;;;;;10.25;5.05;;;27.90;48.20;;;;;;5019471;28;20041;-62
2022/07/19 07:07:35;;;;;;;11.30;4.65;;;28.00;47.90;;;;;;5017704;28;20685;-62
2022/07/19 07:10:03;;;;;;;11.05;4.30;;;28.10;48.00;;;;;;5017293;28;20038;-61
2022/07/19 07:12:29;;;;;;;9.60;4.40;;;28.20;47.60;;;;;;5017500;28;20030;-61
2022/07/19 07:14:55;;;;;;;7.85;4.10;;;28.30;47.60;;;;;;5017355;28;20026;-62
2022/07/19 07:17:21;;;;;;;8.43;4.05;;;28.40;47.30;;;;;;5017344;28;20101;-62
2022/07/19 07:19:46;;;;;;;10.35;4.35;;;28.60;46.90;;;;;;5017077;28;20034;-62
2022/07/19 07:22:12;;;;;;;7.93;3.83;;;28.70;46.60;;;;;;5016189;28;20113;-62
2022/07/19 07:24:38;;;;;;;9.15;4.38;;;28.80;46.60;;;;;;5016459;28;20038;-62
2022/07/19 07:27:04;;;;;;;11.98;4.82;;;29.00;46.50;;;;;;5016107;28;20026;-62
2022/07/19 07:29:29;;;;;;;7.30;3.25;;;29.10;46.10;;;;;;5016896;28;20084;-62
2022/07/19 07:31:55;;;;;;;7.82;3.45;;;29.30;45.50;;;;;;5012738;28;20406;-67
2022/07/19 07:34:21;;;;;;;8.48;4.25;;;29.40;45.20;;;;;;5007017;28;20117;-67
2022/07/19 07:36:47;;;;;;;7.50;3.40;;;29.50;45.10;;;;;;5004189;28;20470;-67
2022/07/19 07:39:13;;;;;;;6.82;3.30;;;29.70;44.90;;;;;;5010590;28;20113;-62
2022/07/19 07:41:40;;;;;;;7.10;3.13;;;29.80;44.70;;;;;;5012037;28;20041;-62
2022/07/19 07:44:06;;;;;;;8.85;3.33;;;29.90;44.40;;;;;;5013091;28;20034;-62
2022/07/19 07:46:31;;;;;;;7.68;3.83;;;30.10;44.20;;;;;;5016717;28;20022;-62
2022/07/19 07:48:57;;;;;;;7.32;3.20;;;30.20;43.80;;;;;;5016672;28;20030;-62
2022/07/19 07:51:24;;;;;;;8.23;3.55;;;30.30;43.60;;;;;;5017762;28;20427;-62
2022/07/19 07:53:50;;;;;;;6.93;3.47;;;30.50;43.50;;;;;;5016700;28;20088;-62
2022/07/19 07:56:16;;;;;;;7.57;3.08;;;30.60;43.40;;;;;;5016739;28;20022;-62
2022/07/19 07:58:41;;;;;;;7.78;3.22;;;30.70;43.20;;;;;;5017420;28;20045;-62
2022/07/19 08:01:07;;;;;;;7.68;3.15;;;30.80;43.00;;;;;;5017966;28;20033;-62
2022/07/19 08:03:33;;;;;;;6.18;2.80;;;31.00;42.80;;;;;;5011640;28;20026;-61
2022/07/19 08:05:58;;;;;;;8.25;2.60;;;31.10;42.40;;;;;;5009059;28;20033;-62
2022/07/19 08:08:26;;;;;;;6.20;3.05;;;31.20;42.30;;;;;;5011933;28;20342;-61
2022/07/19 08:10:56;;;;;;;5.75;2.47;;;31.40;42.00;;;;;;5028536;28;20455;-61
2022/07/19 08:13:22;;;;;;;5.78;2.90;;;31.50;41.90;;;;;;5011860;28;20371;-62
2022/07/19 08:15:48;;;;;;;11.13;2.80;;;31.60;41.70;;;;;;5014311;28;20080;-61
2022/07/19 08:18:14;;;;;;;7.13;2.83;;;31.60;41.40;;;;;;5011735;28;20038;-61
2022/07/19 08:20:40;;;;;;;6.75;2.63;;;31.80;41.30;;;;;;5008042;28;20106;-62
2022/07/19 08:23:06;;;;;;;6.07;2.45;;;31.90;40.90;;;;;;5026098;28;20450;-62
2022/07/19 08:25:33;;;;;;;6.88;2.70;;;32.00;40.50;;;;;;5004929;28;20039;-62
2022/07/19 08:28:00;;;;;;;6.88;2.47;;;32.10;40.30;;;;;;5011591;28;20113;-61
2022/07/19 08:30:26;;;;;;;6.57;2.40;;;32.20;40.20;;;;;;4993709;28;20084;-62
2022/07/19 08:32:51;;;;;;;6.25;2.35;;;32.30;40.00;;;;;;5014459;28;20033;-61
2022/07/19 08:35:17;;;;;;;7.10;2.30;;;32.40;39.70;;;;;;5014547;28;20018;-62
2022/07/19 08:37:43;;;;;;;5.68;2.40;;;32.40;39.50;;;;;;5012960;28;20293;-62
2022/07/19 08:40:09;;;;;;;7.05;2.65;;;32.60;39.40;;;;;;5012937;28;20034;-61
2022/07/19 08:42:34;;;;;;;6.18;2.30;;;32.60;39.00;;;;;;5015278;28;20446;-61
2022/07/19 08:45:03;;;;;;;7.80;2.60;;;32.80;38.90;;;;;;5014750;28;20030;-62
2022/07/19 08:47:31;;;;;;;7.38;2.38;;;32.90;38.70;;;;;;5012374;28;20120;-62
2022/07/19 08:49:58;;;;;;;8.18;3.05;;;33.00;38.70;;;;;;5014435;28;20398;-62
2022/07/19 08:52:25;;;;;;;7.60;2.53;;;33.10;38.70;;;;;;5014957;28;20442;-63
2022/07/19 08:54:50;;;;;;;5.60;2.47;;;33.20;38.60;;;;;;5014877;28;20018;-62
2022/07/19 09:00:00;;;;;;;6.07;2.50;;;33.40;38.00;;;;;;5004814;28;20350;-62
2022/07/19 09:02:26;;;;;;;5.53;2.40;;;33.50;37.70;;;;;;5005519;28;20451;-62
2022/07/19 09:05:05;;;;;;;5.85;2.60;;;33.60;37.40;;;;;;5015217;28;20108;-62
2022/07/19 09:07:31;;;;;;;5.75;2.05;;;33.70;37.10;;;;;;5011329;28;20068;-60
2022/07/19 09:10:19;;;;;;;4.82;2.10;;;33.80;37.50;;;;;;4994550;28;20485;-66
2022/07/19 09:13:06;;;;;;;6.40;2.40;;;33.90;37.80;;;;;;5014492;28;20050;-66
2022/07/19 09:15:51;;;;;;;5.53;2.10;;;34.10;37.30;;;;;;5013919;28;20018;-66
2022/07/19 09:18:22;;;;;;;8.35;2.03;;;34.10;36.70;;;;;;5008502;28;20040;-66
2022/07/19 09:20:51;;;;;;;5.40;1.98;;;34.20;36.40;;;;;;4991928;28;20092;-66
2022/07/19 09:23:16;;;;;;;11.82;2.75;;;34.30;36.10;;;;;;5014016;28;20036;-66
2022/07/19 09:25:51;;;;;;;6.78;2.50;;;34.40;35.70;;;;;;5014184;28;20340;-66
2022/07/19 09:28:18;;;;;;;4.85;2.20;;;34.50;35.50;;;;;;5011547;28;20120;-66
2022/07/19 09:30:46;;;;;;;7.43;2.33;;;34.60;35.50;;;;;;5013177;28;20033;-62
2022/07/19 09:33:13;;;;;;;5.45;2.13;;;34.70;35.20;;;;;;5013515;28;20072;-62
2022/07/19 09:35:42;;;;;;;7.70;2.28;;;34.80;35.50;;;;;;5013916;28;20079;-62
2022/07/19 09:38:18;;;;;;;4.90;2.20;;;34.90;34.50;;;;;;5012035;28;20025;-62
2022/07/19 09:40:44;;;;;;;7.88;2.72;;;34.90;34.00;;;;;;5004709;28;20043;-64
2022/07/19 09:43:10;;;;;;;5.50;2.58;;;35.00;33.70;;;;;;5014161;28;20034;-62
2022/07/19 09:45:36;;;;;;;5.28;2.17;;;35.00;33.50;;;;;;5014901;28;20034;-62
2022/07/19 09:48:03;;;;;;;5.07;2.35;;;35.00;33.40;;;;;;5012860;28;20041;-61
2022/07/19 09:50:29;;;;;;;6.30;2.30;;;35.20;33.60;;;;;;5014475;28;20037;-62
2022/07/19 09:53:00;;;;;;;6.85;2.33;;;35.20;33.60;;;;;;5017970;28;20033;-61
2022/07/19 09:55:27;;;;;;;6.05;2.45;;;35.30;33.50;;;;;;5014475;28;20040;-61
2022/07/19 09:57:55;;;;;;;5.80;2.40;;;35.30;33.50;;;;;;4994994;28;20030;-62
2022/07/19 10:00:23;;;;;;;7.28;2.08;;;35.40;33.30;;;;;;5013433;28;20030;-62
2022/07/19 10:02:54;;;;;;;4.70;2.03;;;35.40;33.20;;;;;;5008768;28;20030;-62
2022/07/19 10:05:20;;;;;;;6.15;2.80;;;35.50;33.20;;;;;;5013657;28;20037;-62
2022/07/19 10:07:47;;;;;;;5.95;2.70;;;35.50;33.20;;;;;;5013562;28;20132;-62
2022/07/19 10:10:15;;;;;;;6.50;2.58;;;35.60;33.30;;;;;;5014159;28;20034;-62
2022/07/19 10:12:43;;;;;;;8.18;2.28;;;35.70;33.50;;;;;;5013630;28;20038;-61
2022/07/19 10:15:11;;;;;;;5.40;2.38;;;35.70;33.40;;;;;;5007177;28;20401;-61
2022/07/19 10:17:47;;;;;;;7.60;2.38;;;35.80;33.60;;;;;;5010604;28;20026;-61
2022/07/19 10:20:18;;;;;;;5.75;2.40;;;35.80;33.70;;;;;;5011907;28;20041;-62
2022/07/19 10:22:45;;;;;;;6.88;2.63;;;35.80;33.80;;;;;;4989634;28;20026;-66
2022/07/19 10:25:15;;;;;;;6.15;2.55;;;35.80;33.90;;;;;;5009287;28;20030;-66
2022/07/19 10:27:44;;;;;;;6.15;2.63;;;35.90;33.90;;;;;;5012016;28;20423;-66
2022/07/19 10:30:12;;;;;;;7.63;2.47;;;36.00;33.80;;;;;;5013502;28;20025;-66
2022/07/19 10:32:43;;;;;;;7.70;3.03;;;36.00;33.60;;;;;;5014276;28;20030;-66
2022/07/19 10:35:27;;;;;;;6.30;2.78;;;35.90;33.50;;;;;;5012069;28;20136;-66
2022/07/19 10:37:54;;;;;;;7.28;2.45;;;35.90;33.40;;;;;;5013691;28;20041;-67
2022/07/19 10:40:56;;;;;;;6.82;2.42;;;35.90;33.80;;;;;;5011150;28;20033;-66
2022/07/19 10:43:23;;;;;;;5.38;2.25;;;36.00;33.60;;;;;;5008699;28;20029;-67
2022/07/19 10:46:04;;;;;;;5.07;2.20;;;36.00;33.60;;;;;;5013767;28;20036;-67
2022/07/19 10:48:39;;;;;;;6.43;2.88;;;36.10;33.30;;;;;;5025794;28;20460;-67
2022/07/19 10:51:12;;;;;;;4.95;2.17;;;36.10;33.00;;;;;;5011334;28;20108;-67
2022/07/19 10:53:40;;;;;;;5.93;2.28;;;36.10;32.80;;;;;;5013135;28;20030;-67
2022/07/19 10:56:16;;;;;;;7.88;2.50;;;36.00;32.60;;;;;;5010266;28;20022;-67
2022/07/19 10:59:00;;;;;;;5.43;2.22;;;36.00;32.50;;;;;;5011066;28;20347;-67
2022/07/19 11:01:28;;;;;;;6.63;2.35;;;36.10;32.40;;;;;;5009160;28;20459;-66
2022/07/19 11:04:14;;;;;;;6.43;2.17;;;36.10;32.40;;;;;;5008609;28;20097;-69
2022/07/19 11:06:40;;;;;;;6.75;2.17;;;36.20;32.30;;;;;;5010587;28;20112;-69
2022/07/19 11:09:06;;;;;;;5.60;2.38;;;36.20;32.80;;;;;;5010760;28;20080;-69
2022/07/19 11:11:31;;;;;;;5.75;2.30;;;36.20;32.10;;;;;;5012470;28;20330;-67
2022/07/19 11:13:58;;;;;;;6.57;2.47;;;36.30;32.20;;;;;;5013532;28;20116;-67
2022/07/19 11:16:25;;;;;;;5.75;2.22;;;36.30;32.10;;;;;;5012507;28;20034;-68
2022/07/19 11:18:51;;;;;;;6.40;2.35;;;36.40;32.00;;;;;;5012497;28;20042;-70
2022/07/19 11:21:17;;;;;;;6.85;2.38;;;36.40;31.90;;;;;;5013813;28;20364;-70
2022/07/19 11:23:44;;;;;;;4.80;2.03;;;36.50;31.80;;;;;;5011237;28;20098;-70
2022/07/19 11:26:14;;;;;;;4.60;2.15;;;36.50;31.40;;;;;;5011157;28;20045;-71
2022/07/19 11:28:42;;;;;;;5.10;2.30;;;36.50;31.20;;;;;;5012044;28;20096;-69
2022/07/19 11:31:12;;;;;;;5.72;2.33;;;36.60;31.20;;;;;;5013810;28;20026;-69
2022/07/19 11:33:38;;;;;;;;;;;36.60;31.00;;;;;;5011348;28;20037;-69
2022/07/19 11:36:04;;;;;;;6.13;2.20;;;36.70;31.30;;;;;;5010967;28;20366;-68
2022/07/19 11:38:42;;;;;;;6.47;2.40;;;36.70;31.10;;;;;;5010714;28;20041;-68
2022/07/19 11:41:19;;;;;;;6.25;2.03;;;36.70;31.00;;;;;;5004777;28;20459;-68
2022/07/19 11:44:04;;;;;;;4.60;2.00;;;36.70;30.80;;;;;;5014942;28;20045;-68
2022/07/19 11:46:37;;;;;;;4.57;2.20;;;36.70;30.90;;;;;;5017440;28;20082;-68
2022/07/19 11:49:04;;;;;;;4.75;1.90;;;36.60;31.10;;;;;;5012550;28;20041;-68
2022/07/19 11:51:31;;;;;;;5.72;2.47;;;36.70;31.10;;;;;;5012977;28;20117;-68
2022/07/19 11:53:58;;;;;;;6.03;2.63;;;36.70;31.20;;;;;;5011603;28;20423;-68
2022/07/19 11:56:30;;;;;;;5.10;2.38;;;36.70;31.30;;;;;;5010947;28;20371;-68
2022/07/19 11:58:58;;;;;;;8.02;2.10;;;36.70;31.20;;;;;;5021173;28;20033;-68
2022/07/19 12:01:28;;;;;;;5.15;2.22;;;36.60;31.10;;;;;;5011605;28;20462;-68
2022/07/19 12:04:03;;;;;;;7.38;2.53;;;36.60;31.00;;;;;;5010860;28;20034;-67
2022/07/19 12:06:41;;;;;;;5.75;2.17;;;36.60;31.00;;;;;;5009684;28;20045;-67
2022/07/19 12:09:18;;;;;;;5.68;2.10;;;36.50;30.90;;;;;;5013507;28;20030;-66
2022/07/19 12:11:52;;;;;;;4.97;2.50;;;36.40;30.90;;;;;;5015113;28;20029;-67
2022/07/19 12:14:25;;;;;;;4.40;2.03;;;36.30;30.90;;;;;;5009839;28;20041;-67
2022/07/19 12:17:10;;;;;;;4.68;2.08;;;36.30;30.70;;;;;;5013914;28;20029;-67
2022/07/19 12:19:35;;;;;;;4.80;2.22;;;36.30;30.80;;;;;;5014602;28;20127;-67
2022/07/19 12:22:01;;;;;;;6.07;2.53;;;36.20;30.90;;;;;;5014346;28;20084;-67
2022/07/19 12:24:29;;;;;;;4.45;2.03;;;36.10;30.90;;;;;;5012824;28;20026;-67
2022/07/19 12:27:06;;;;;;;5.57;2.20;;;36.10;31.00;;;;;;5013063;28;20052;-67
2022/07/19 12:29:35;;;;;;;4.82;2.15;;;36.00;31.00;;;;;;5013138;28;20030;-67
2022/07/19 12:32:09;;;;;;;4.93;2.10;;;36.00;31.10;;;;;;5015665;28;20022;-67
2022/07/19 12:34:50;;;;;;;9.02;2.50;;;35.90;31.00;;;;;;5014062;28;20026;-67
2022/07/19 12:37:31;;;;;;;;;;;35.90;30.90;;;;;;5009527;28;20115;-67
2022/07/19 12:40:02;;;;;;;3.97;1.98;;;35.80;31.20;;;;;;5006749;28;20014;-67
2022/07/19 12:42:40;;;;;;;4.93;2.00;;;35.80;31.00;;;;;;5011436;28;20080;-67
2022/07/19 12:45:09;;;;;;;4.38;1.98;;;35.80;31.30;;;;;;5012964;28;20080;-67
2022/07/19 12:47:34;;;;;;;5.80;2.40;;;35.70;31.40;;;;;;4989274;28;20029;-68
2022/07/19 12:50:00;;;;;;;5.40;2.35;;;35.70;31.30;;;;;;5011846;28;20352;-67
2022/07/19 12:52:27;;;;;;;5.40;2.25;;;35.60;31.30;;;;;;5013064;28;20451;-67